sensor_id;sensor_type;location;lat;lon;timestamp;temperature;humidity
70145;DHT22;57510;51.068;3.872;2022-07-29T00:00:04;19.00;67.80
70145;DHT22;57510;51.068;3.872;2022-07-29T00:02:29;19.00;67.50
70145;DHT22;57510;51.068;3.872;2022-07-29T00:04:59;19.00;67.60
70145;DHT22;57510;51.068;3.872;2022-07-29T00:07:33;19.00;67.60
70145;DHT22;57510;51.068;3.872;2022-07-29T00:09:59;19.00;67.90
70145;DHT22;57510;51.068;3.872;2022-07-29T00:12:28;19.00;67.90
70145;DHT22;57510;51.068;3.872;2022-07-29T00:17:24;19.10;67.80
70145;DHT22;57510;51.068;3.872;2022-07-29T00:19:59;19.10;68.00
70145;DHT22;57510;51.068;3.872;2022-07-29T00:22:24;19.00;68.00
70145;DHT22;57510;51.068;3.872;2022-07-29T00:24:50;19.00;68.40
70145;DHT22;57510;51.068;3.872;2022-07-29T00:27:16;19.00;68.40
70145;DHT22;57510;51.068;3.872;2022-07-29T00:29:41;19.00;68.30
70145;DHT22;57510;51.068;3.872;2022-07-29T00:32:07;18.90;68.50
70145;DHT22;57510;51.068;3.872;2022-07-29T00:34:34;19.00;68.50
70145;DHT22;57510;51.068;3.872;2022-07-29T00:37:18;18.90;68.60
70145;DHT22;57510;51.068;3.872;2022-07-29T00:39:43;18.90;68.70
70145;DHT22;57510;51.068;3.872;2022-07-29T00:42:09;18.90;68.60
70145;DHT22;57510;51.068;3.872;2022-07-29T00:44:36;18.90;68.70
70145;DHT22;57510;51.068;3.872;2022-07-29T00:47:02;18.90;68.80
70145;DHT22;57510;51.068;3.872;2022-07-29T00:49:28;18.90;68.80
70145;DHT22;57510;51.068;3.872;2022-07-29T00:51:53;18.90;69.00
70145;DHT22;57510;51.068;3.872;2022-07-29T00:54:19;18.80;69.50
70145;DHT22;57510;51.068;3.872;2022-07-29T00:56:45;18.80;69.20
70145;DHT22;57510;51.068;3.872;2022-07-29T00:59:10;18.80;69.30
70145;DHT22;57510;51.068;3.872;2022-07-29T01:01:36;18.80;69.60
70145;DHT22;57510;51.068;3.872;2022-07-29T01:04:01;18.80;69.60
70145;DHT22;57510;51.068;3.872;2022-07-29T01:06:27;18.70;69.70
70145;DHT22;57510;51.068;3.872;2022-07-29T01:08:52;18.70;69.80
70145;DHT22;57510;51.068;3.872;2022-07-29T01:11:18;18.70;69.90
70145;DHT22;57510;51.068;3.872;2022-07-29T01:13:44;18.60;70.00
70145;DHT22;57510;51.068;3.872;2022-07-29T01:16:13;18.60;70.00
70145;DHT22;57510;51.068;3.872;2022-07-29T01:18:42;18.60;70.30
70145;DHT22;57510;51.068;3.872;2022-07-29T01:21:21;18.50;70.50
70145;DHT22;57510;51.068;3.872;2022-07-29T01:26:33;18.40;71.10
70145;DHT22;57510;51.068;3.872;2022-07-29T01:29:08;18.30;71.60
70145;DHT22;57510;51.068;3.872;2022-07-29T01:34:15;18.10;72.00
70145;DHT22;57510;51.068;3.872;2022-07-29T01:36:43;18.10;72.40
70145;DHT22;57510;51.068;3.872;2022-07-29T01:39:12;18.00;73.00
70145;DHT22;57510;51.068;3.872;2022-07-29T01:41:49;17.90;73.20
70145;DHT22;57510;51.068;3.872;2022-07-29T01:44:27;17.80;74.20
70145;DHT22;57510;51.068;3.872;2022-07-29T01:46:56;17.70;74.30
70145;DHT22;57510;51.068;3.872;2022-07-29T01:49:24;17.60;74.70
70145;DHT22;57510;51.068;3.872;2022-07-29T01:51:58;17.60;74.90
70145;DHT22;57510;51.068;3.872;2022-07-29T01:54:30;17.50;75.30
70145;DHT22;57510;51.068;3.872;2022-07-29T01:56:57;17.40;75.40
70145;DHT22;57510;51.068;3.872;2022-07-29T01:59:24;17.30;75.80
70145;DHT22;57510;51.068;3.872;2022-07-29T02:01:54;17.30;76.40
70145;DHT22;57510;51.068;3.872;2022-07-29T02:04:20;17.20;76.40
70145;DHT22;57510;51.068;3.872;2022-07-29T02:06:47;17.10;76.70
70145;DHT22;57510;51.068;3.872;2022-07-29T02:09:14;17.10;77.00
70145;DHT22;57510;51.068;3.872;2022-07-29T02:11:42;17.00;77.40
70145;DHT22;57510;51.068;3.872;2022-07-29T02:14:12;16.90;77.50
70145;DHT22;57510;51.068;3.872;2022-07-29T02:16:47;16.90;78.00
70145;DHT22;57510;51.068;3.872;2022-07-29T02:19:13;16.80;77.80
70145;DHT22;57510;51.068;3.872;2022-07-29T02:21:39;16.70;77.80
70145;DHT22;57510;51.068;3.872;2022-07-29T02:24:05;16.70;78.00
70145;DHT22;57510;51.068;3.872;2022-07-29T02:26:31;16.60;78.30
70145;DHT22;57510;51.068;3.872;2022-07-29T02:29:02;16.50;78.60
70145;DHT22;57510;51.068;3.872;2022-07-29T02:31:31;16.40;78.70
70145;DHT22;57510;51.068;3.872;2022-07-29T02:34:05;16.40;79.00
70145;DHT22;57510;51.068;3.872;2022-07-29T02:36:37;16.40;79.40
70145;DHT22;57510;51.068;3.872;2022-07-29T02:39:03;16.30;79.50
70145;DHT22;57510;51.068;3.872;2022-07-29T02:41:30;16.30;79.70
70145;DHT22;57510;51.068;3.872;2022-07-29T02:44:02;16.30;80.00
70145;DHT22;57510;51.068;3.872;2022-07-29T02:46:30;16.20;80.30
70145;DHT22;57510;51.068;3.872;2022-07-29T02:51:33;16.10;80.40
70145;DHT22;57510;51.068;3.872;2022-07-29T02:54:01;16.10;80.50
70145;DHT22;57510;51.068;3.872;2022-07-29T02:56:30;16.00;80.60
70145;DHT22;57510;51.068;3.872;2022-07-29T02:59:01;16.00;80.80
70145;DHT22;57510;51.068;3.872;2022-07-29T03:01:29;15.90;80.80
70145;DHT22;57510;51.068;3.872;2022-07-29T03:03:55;15.90;80.80
70145;DHT22;57510;51.068;3.872;2022-07-29T03:06:22;15.80;81.00
70145;DHT22;57510;51.068;3.872;2022-07-29T03:08:48;15.70;81.10
70145;DHT22;57510;51.068;3.872;2022-07-29T03:11:14;15.70;81.20
70145;DHT22;57510;51.068;3.872;2022-07-29T03:13:40;15.70;81.30
70145;DHT22;57510;51.068;3.872;2022-07-29T03:16:06;15.70;81.40
70145;DHT22;57510;51.068;3.872;2022-07-29T03:18:33;15.60;81.40
70145;DHT22;57510;51.068;3.872;2022-07-29T03:20:59;15.60;81.60
70145;DHT22;57510;51.068;3.872;2022-07-29T03:23:25;15.60;81.80
70145;DHT22;57510;51.068;3.872;2022-07-29T03:25:53;15.60;82.00
70145;DHT22;57510;51.068;3.872;2022-07-29T03:28:19;15.60;82.10
70145;DHT22;57510;51.068;3.872;2022-07-29T03:30:45;15.50;82.30
70145;DHT22;57510;51.068;3.872;2022-07-29T03:33:10;15.50;82.40
70145;DHT22;57510;51.068;3.872;2022-07-29T03:35:37;15.50;82.60
70145;DHT22;57510;51.068;3.872;2022-07-29T03:38:02;15.40;82.60
70145;DHT22;57510;51.068;3.872;2022-07-29T03:40:33;15.40;82.60
70145;DHT22;57510;51.068;3.872;2022-07-29T03:42:59;15.40;82.70
70145;DHT22;57510;51.068;3.872;2022-07-29T03:45:26;15.40;82.80
70145;DHT22;57510;51.068;3.872;2022-07-29T03:47:53;15.30;82.70
70145;DHT22;57510;51.068;3.872;2022-07-29T03:50:20;15.30;82.70
70145;DHT22;57510;51.068;3.872;2022-07-29T03:52:47;15.30;82.80
70145;DHT22;57510;51.068;3.872;2022-07-29T03:55:18;15.30;82.90
70145;DHT22;57510;51.068;3.872;2022-07-29T03:57:44;15.20;83.10
70145;DHT22;57510;51.068;3.872;2022-07-29T04:00:10;15.10;83.00
70145;DHT22;57510;51.068;3.872;2022-07-29T04:02:36;15.20;83.30
70145;DHT22;57510;51.068;3.872;2022-07-29T04:05:07;15.20;83.50
70145;DHT22;57510;51.068;3.872;2022-07-29T04:07:37;15.10;83.50
70145;DHT22;57510;51.068;3.872;2022-07-29T04:10:03;15.20;83.60
70145;DHT22;57510;51.068;3.872;2022-07-29T04:12:29;15.10;83.50
70145;DHT22;57510;51.068;3.872;2022-07-29T04:14:54;15.10;83.30
70145;DHT22;57510;51.068;3.872;2022-07-29T04:17:20;15.00;83.20
70145;DHT22;57510;51.068;3.872;2022-07-29T04:19:45;15.00;83.20
70145;DHT22;57510;51.068;3.872;2022-07-29T04:22:11;15.00;83.30
70145;DHT22;57510;51.068;3.872;2022-07-29T04:24:37;15.00;83.60
70145;DHT22;57510;51.068;3.872;2022-07-29T04:30:25;15.00;84.00
70145;DHT22;57510;51.068;3.872;2022-07-29T04:35:39;14.90;84.20
70145;DHT22;57510;51.068;3.872;2022-07-29T04:38:05;14.80;84.00
70145;DHT22;57510;51.068;3.872;2022-07-29T04:40:45;14.90;84.10
70145;DHT22;57510;51.068;3.872;2022-07-29T04:43:11;14.90;84.20
70145;DHT22;57510;51.068;3.872;2022-07-29T04:48:06;15.00;85.00
70145;DHT22;57510;51.068;3.872;2022-07-29T04:50:32;15.00;84.90
70145;DHT22;57510;51.068;3.872;2022-07-29T04:53:00;15.00;84.90
70145;DHT22;57510;51.068;3.872;2022-07-29T04:55:43;15.10;85.10
70145;DHT22;57510;51.068;3.872;2022-07-29T05:00:40;15.20;85.50
70145;DHT22;57510;51.068;3.872;2022-07-29T05:03:06;15.20;85.90
70145;DHT22;57510;51.068;3.872;2022-07-29T05:05:37;15.30;86.00
70145;DHT22;57510;51.068;3.872;2022-07-29T05:08:02;15.30;85.90
70145;DHT22;57510;51.068;3.872;2022-07-29T05:10:28;15.50;86.00
70145;DHT22;57510;51.068;3.872;2022-07-29T05:12:54;15.50;86.00
70145;DHT22;57510;51.068;3.872;2022-07-29T05:15:21;15.60;86.00
70145;DHT22;57510;51.068;3.872;2022-07-29T05:17:46;15.70;86.00
70145;DHT22;57510;51.068;3.872;2022-07-29T05:20:12;15.80;85.90
70145;DHT22;57510;51.068;3.872;2022-07-29T05:22:38;15.80;85.90
70145;DHT22;57510;51.068;3.872;2022-07-29T05:25:05;15.90;85.90
70145;DHT22;57510;51.068;3.872;2022-07-29T05:27:32;16.00;85.90
70145;DHT22;57510;51.068;3.872;2022-07-29T05:29:57;16.10;85.70
70145;DHT22;57510;51.068;3.872;2022-07-29T05:35:37;16.20;85.70
70145;DHT22;57510;51.068;3.872;2022-07-29T05:38:06;16.30;85.90
70145;DHT22;57510;51.068;3.872;2022-07-29T05:40:31;16.40;85.60
70145;DHT22;57510;51.068;3.872;2022-07-29T05:42:57;16.40;85.60
70145;DHT22;57510;51.068;3.872;2022-07-29T05:47:53;16.60;85.30
70145;DHT22;57510;51.068;3.872;2022-07-29T05:50:22;16.70;85.20
70145;DHT22;57510;51.068;3.872;2022-07-29T05:52:48;16.80;85.40
70145;DHT22;57510;51.068;3.872;2022-07-29T05:55:19;16.90;85.30
70145;DHT22;57510;51.068;3.872;2022-07-29T05:57:45;16.90;85.30
70145;DHT22;57510;51.068;3.872;2022-07-29T06:00:11;17.00;85.30
70145;DHT22;57510;51.068;3.872;2022-07-29T06:02:38;17.00;85.20
70145;DHT22;57510;51.068;3.872;2022-07-29T06:05:04;17.00;84.90
70145;DHT22;57510;51.068;3.872;2022-07-29T06:07:29;17.00;84.60
70145;DHT22;57510;51.068;3.872;2022-07-29T06:09:57;17.10;84.90
70145;DHT22;57510;51.068;3.872;2022-07-29T06:12:23;17.10;84.50
70145;DHT22;57510;51.068;3.872;2022-07-29T06:14:48;17.10;84.30
70145;DHT22;57510;51.068;3.872;2022-07-29T06:17:15;17.20;84.00
70145;DHT22;57510;51.068;3.872;2022-07-29T06:19:41;17.30;83.90
70145;DHT22;57510;51.068;3.872;2022-07-29T06:22:06;17.30;83.90
70145;DHT22;57510;51.068;3.872;2022-07-29T06:24:32;17.40;83.70
70145;DHT22;57510;51.068;3.872;2022-07-29T06:29:35;17.50;83.60
70145;DHT22;57510;51.068;3.872;2022-07-29T06:32:04;17.60;83.30
70145;DHT22;57510;51.068;3.872;2022-07-29T06:34:34;17.70;82.90
70145;DHT22;57510;51.068;3.872;2022-07-29T06:37:08;17.70;82.70
70145;DHT22;57510;51.068;3.872;2022-07-29T06:39:36;17.80;82.50
70145;DHT22;57510;51.068;3.872;2022-07-29T06:42:06;17.90;82.10
70145;DHT22;57510;51.068;3.872;2022-07-29T06:44:32;18.00;81.80
70145;DHT22;57510;51.068;3.872;2022-07-29T06:47:00;18.10;81.40
70145;DHT22;57510;51.068;3.872;2022-07-29T06:49:34;18.20;80.70
70145;DHT22;57510;51.068;3.872;2022-07-29T06:51:59;18.20;80.30
70145;DHT22;57510;51.068;3.872;2022-07-29T06:54:25;18.20;80.00
70145;DHT22;57510;51.068;3.872;2022-07-29T06:56:51;18.30;80.30
70145;DHT22;57510;51.068;3.872;2022-07-29T06:59:16;18.40;80.30
70145;DHT22;57510;51.068;3.872;2022-07-29T07:01:42;18.50;80.20
70145;DHT22;57510;51.068;3.872;2022-07-29T07:04:08;18.50;80.00
70145;DHT22;57510;51.068;3.872;2022-07-29T07:06:34;18.60;79.50
70145;DHT22;57510;51.068;3.872;2022-07-29T07:09:00;18.70;80.00
70145;DHT22;57510;51.068;3.872;2022-07-29T07:11:26;18.80;79.40
70145;DHT22;57510;51.068;3.872;2022-07-29T07:13:51;18.80;78.90
70145;DHT22;57510;51.068;3.872;2022-07-29T07:16:17;18.90;78.90
70145;DHT22;57510;51.068;3.872;2022-07-29T07:18:42;18.90;78.30
70145;DHT22;57510;51.068;3.872;2022-07-29T07:21:10;19.00;78.50
70145;DHT22;57510;51.068;3.872;2022-07-29T07:23:35;19.00;78.20
70145;DHT22;57510;51.068;3.872;2022-07-29T07:26:01;19.10;78.10
70145;DHT22;57510;51.068;3.872;2022-07-29T07:28:28;19.10;78.10
70145;DHT22;57510;51.068;3.872;2022-07-29T07:30:54;19.20;78.00
70145;DHT22;57510;51.068;3.872;2022-07-29T07:33:20;19.20;78.00
70145;DHT22;57510;51.068;3.872;2022-07-29T07:35:46;19.30;78.10
70145;DHT22;57510;51.068;3.872;2022-07-29T07:38:12;19.30;77.80
70145;DHT22;57510;51.068;3.872;2022-07-29T07:40:38;19.40;77.80
70145;DHT22;57510;51.068;3.872;2022-07-29T07:43:03;19.50;77.80
70145;DHT22;57510;51.068;3.872;2022-07-29T07:45:30;19.50;77.60
70145;DHT22;57510;51.068;3.872;2022-07-29T07:47:57;19.50;77.50
70145;DHT22;57510;51.068;3.872;2022-07-29T07:50:24;19.50;76.90
70145;DHT22;57510;51.068;3.872;2022-07-29T07:52:50;19.50;76.80
70145;DHT22;57510;51.068;3.872;2022-07-29T07:55:17;19.70;77.20
70145;DHT22;57510;51.068;3.872;2022-07-29T07:57:43;19.80;77.50
70145;DHT22;57510;51.068;3.872;2022-07-29T08:00:10;19.80;77.30
70145;DHT22;57510;51.068;3.872;2022-07-29T08:02:35;19.80;76.80
70145;DHT22;57510;51.068;3.872;2022-07-29T08:05:01;19.90;76.80
70145;DHT22;57510;51.068;3.872;2022-07-29T08:07:30;19.90;76.00
70145;DHT22;57510;51.068;3.872;2022-07-29T08:09:57;19.90;76.10
70145;DHT22;57510;51.068;3.872;2022-07-29T08:12:23;20.00;75.80
70145;DHT22;57510;51.068;3.872;2022-07-29T08:14:49;20.00;76.00
70145;DHT22;57510;51.068;3.872;2022-07-29T08:17:15;20.10;76.00
70145;DHT22;57510;51.068;3.872;2022-07-29T08:19:41;20.10;76.20
70145;DHT22;57510;51.068;3.872;2022-07-29T08:22:07;20.20;76.30
70145;DHT22;57510;51.068;3.872;2022-07-29T08:24:32;20.20;75.90
70145;DHT22;57510;51.068;3.872;2022-07-29T08:29:47;20.40;75.30
70145;DHT22;57510;51.068;3.872;2022-07-29T08:35:04;20.60;74.20
70145;DHT22;57510;51.068;3.872;2022-07-29T08:37:29;20.60;75.80
70145;DHT22;57510;51.068;3.872;2022-07-29T08:39:55;20.70;75.10
70145;DHT22;57510;51.068;3.872;2022-07-29T08:42:21;20.80;74.70
70145;DHT22;57510;51.068;3.872;2022-07-29T08:44:47;20.90;74.80
70145;DHT22;57510;51.068;3.872;2022-07-29T08:47:25;20.90;74.90
70145;DHT22;57510;51.068;3.872;2022-07-29T08:49:51;21.00;74.50
70145;DHT22;57510;51.068;3.872;2022-07-29T08:52:17;21.10;74.10
70145;DHT22;57510;51.068;3.872;2022-07-29T08:54:43;21.20;73.30
70145;DHT22;57510;51.068;3.872;2022-07-29T08:57:14;21.30;73.60
70145;DHT22;57510;51.068;3.872;2022-07-29T08:59:41;21.40;73.20
70145;DHT22;57510;51.068;3.872;2022-07-29T09:02:11;21.60;72.90
70145;DHT22;57510;51.068;3.872;2022-07-29T09:04:38;21.50;72.40
70145;DHT22;57510;51.068;3.872;2022-07-29T09:07:04;21.50;71.30
70145;DHT22;57510;51.068;3.872;2022-07-29T09:09:33;21.70;71.20
70145;DHT22;57510;51.068;3.872;2022-07-29T09:11:58;21.70;70.80
70145;DHT22;57510;51.068;3.872;2022-07-29T09:14:24;21.60;70.70
70145;DHT22;57510;51.068;3.872;2022-07-29T09:19:27;21.60;70.80
70145;DHT22;57510;51.068;3.872;2022-07-29T09:21:54;21.60;70.60
70145;DHT22;57510;51.068;3.872;2022-07-29T09:24:24;21.70;70.00
70145;DHT22;57510;51.068;3.872;2022-07-29T09:26:50;21.80;71.00
70145;DHT22;57510;51.068;3.872;2022-07-29T09:29:17;22.00;69.00
70145;DHT22;57510;51.068;3.872;2022-07-29T09:31:43;22.10;69.50
70145;DHT22;57510;51.068;3.872;2022-07-29T09:34:09;22.20;68.60
70145;DHT22;57510;51.068;3.872;2022-07-29T09:36:43;22.30;68.70
70145;DHT22;57510;51.068;3.872;2022-07-29T09:39:09;22.40;68.60
70145;DHT22;57510;51.068;3.872;2022-07-29T09:41:51;22.40;68.00
70145;DHT22;57510;51.068;3.872;2022-07-29T09:44:21;22.40;68.10
70145;DHT22;57510;51.068;3.872;2022-07-29T09:47:02;22.40;68.10
70145;DHT22;57510;51.068;3.872;2022-07-29T09:49:31;22.60;67.70
70145;DHT22;57510;51.068;3.872;2022-07-29T09:54:27;22.80;65.50
70145;DHT22;57510;51.068;3.872;2022-07-29T09:56:55;22.80;65.30
70145;DHT22;57510;51.068;3.872;2022-07-29T09:59:20;22.80;66.00
70145;DHT22;57510;51.068;3.872;2022-07-29T10:01:49;22.80;65.70
70145;DHT22;57510;51.068;3.872;2022-07-29T10:04:15;22.80;65.70
70145;DHT22;57510;51.068;3.872;2022-07-29T10:09:22;22.90;65.10
70145;DHT22;57510;51.068;3.872;2022-07-29T10:12:07;23.10;64.70
70145;DHT22;57510;51.068;3.872;2022-07-29T10:14:34;23.20;64.90
70145;DHT22;57510;51.068;3.872;2022-07-29T10:17:01;23.40;64.50
70145;DHT22;57510;51.068;3.872;2022-07-29T10:19:30;23.30;63.40
70145;DHT22;57510;51.068;3.872;2022-07-29T10:21:57;23.40;64.30
70145;DHT22;57510;51.068;3.872;2022-07-29T10:24:27;23.30;62.40
70145;DHT22;57510;51.068;3.872;2022-07-29T10:26:54;23.30;61.30
70145;DHT22;57510;51.068;3.872;2022-07-29T10:29:20;23.40;61.70
70145;DHT22;57510;51.068;3.872;2022-07-29T10:31:53;23.30;61.70
70145;DHT22;57510;51.068;3.872;2022-07-29T10:34:23;23.40;62.00
70145;DHT22;57510;51.068;3.872;2022-07-29T10:37:12;23.60;61.80
70145;DHT22;57510;51.068;3.872;2022-07-29T10:40:07;23.60;60.30
70145;DHT22;57510;51.068;3.872;2022-07-29T10:42:54;23.60;60.70
70145;DHT22;57510;51.068;3.872;2022-07-29T10:45:21;23.70;58.90
70145;DHT22;57510;51.068;3.872;2022-07-29T10:47:46;23.80;57.40
70145;DHT22;57510;51.068;3.872;2022-07-29T10:50:27;23.90;57.50
70145;DHT22;57510;51.068;3.872;2022-07-29T10:52:53;23.80;58.20
70145;DHT22;57510;51.068;3.872;2022-07-29T11:00:39;24.00;56.10
70145;DHT22;57510;51.068;3.872;2022-07-29T11:03:05;24.10;56.50
70145;DHT22;57510;51.068;3.872;2022-07-29T11:05:51;24.10;55.60
70145;DHT22;57510;51.068;3.872;2022-07-29T11:08:18;24.20;56.20
70145;DHT22;57510;51.068;3.872;2022-07-29T11:10:46;24.30;56.10
70145;DHT22;57510;51.068;3.872;2022-07-29T11:13:12;24.40;56.80
70145;DHT22;57510;51.068;3.872;2022-07-29T11:15:54;24.50;56.40
70145;DHT22;57510;51.068;3.872;2022-07-29T11:20:53;24.50;54.90
70145;DHT22;57510;51.068;3.872;2022-07-29T11:25:54;25.00;53.40
70145;DHT22;57510;51.068;3.872;2022-07-29T11:28:32;24.90;54.40
70145;DHT22;57510;51.068;3.872;2022-07-29T11:30:59;25.20;53.40
70145;DHT22;57510;51.068;3.872;2022-07-29T11:33:35;25.50;53.10
70145;DHT22;57510;51.068;3.872;2022-07-29T11:36:10;25.70;52.70
70145;DHT22;57510;51.068;3.872;2022-07-29T11:38:37;25.80;52.40
70145;DHT22;57510;51.068;3.872;2022-07-29T11:48:42;26.60;49.60
70145;DHT22;57510;51.068;3.872;2022-07-29T11:51:11;26.60;50.40
70145;DHT22;57510;51.068;3.872;2022-07-29T11:53:48;26.70;51.30
70145;DHT22;57510;51.068;3.872;2022-07-29T11:56:21;26.80;49.90
70145;DHT22;57510;51.068;3.872;2022-07-29T11:59:06;26.90;50.60
70145;DHT22;57510;51.068;3.872;2022-07-29T12:01:31;26.50;51.40
70145;DHT22;57510;51.068;3.872;2022-07-29T12:04:06;26.70;51.20
70145;DHT22;57510;51.068;3.872;2022-07-29T12:06:36;26.90;50.40
70145;DHT22;57510;51.068;3.872;2022-07-29T12:09:08;26.80;51.10
70145;DHT22;57510;51.068;3.872;2022-07-29T12:11:40;26.80;50.90
70145;DHT22;57510;51.068;3.872;2022-07-29T12:16:50;27.20;50.00
70145;DHT22;57510;51.068;3.872;2022-07-29T12:19:17;27.20;49.90
70145;DHT22;57510;51.068;3.872;2022-07-29T12:24:18;26.90;50.00
70145;DHT22;57510;51.068;3.872;2022-07-29T12:29:17;27.40;48.80
70145;DHT22;57510;51.068;3.872;2022-07-29T12:31:44;27.50;49.90
70145;DHT22;57510;51.068;3.872;2022-07-29T12:34:12;27.30;50.30
70145;DHT22;57510;51.068;3.872;2022-07-29T12:36:38;27.30;51.30
70145;DHT22;57510;51.068;3.872;2022-07-29T12:41:56;27.00;50.90
70145;DHT22;57510;51.068;3.872;2022-07-29T12:47:06;27.20;50.90
70145;DHT22;57510;51.068;3.872;2022-07-29T12:49:41;27.60;49.60
70145;DHT22;57510;51.068;3.872;2022-07-29T12:55:00;27.70;48.80
70145;DHT22;57510;51.068;3.872;2022-07-29T13:02:58;26.80;48.00
70145;DHT22;57510;51.068;3.872;2022-07-29T13:05:38;26.90;48.40
70145;DHT22;57510;51.068;3.872;2022-07-29T13:08:14;26.80;48.90
70145;DHT22;57510;51.068;3.872;2022-07-29T13:10:40;26.90;48.40
70145;DHT22;57510;51.068;3.872;2022-07-29T13:13:06;27.20;47.90
70145;DHT22;57510;51.068;3.872;2022-07-29T13:15:34;27.40;48.00
70145;DHT22;57510;51.068;3.872;2022-07-29T13:18:00;27.60;47.10
70145;DHT22;57510;51.068;3.872;2022-07-29T13:20:27;27.80;47.90
70145;DHT22;57510;51.068;3.872;2022-07-29T13:22:55;28.00;47.00
70145;DHT22;57510;51.068;3.872;2022-07-29T13:25:28;27.80;47.00
70145;DHT22;57510;51.068;3.872;2022-07-29T13:27:54;27.90;47.90
70145;DHT22;57510;51.068;3.872;2022-07-29T13:30:21;28.00;47.60
70145;DHT22;57510;51.068;3.872;2022-07-29T13:32:51;27.90;46.60
70145;DHT22;57510;51.068;3.872;2022-07-29T13:35:17;27.80;47.40
70145;DHT22;57510;51.068;3.872;2022-07-29T13:37:43;27.50;48.10
70145;DHT22;57510;51.068;3.872;2022-07-29T13:40:09;27.10;47.30
70145;DHT22;57510;51.068;3.872;2022-07-29T13:42:35;27.30;47.60
70145;DHT22;57510;51.068;3.872;2022-07-29T13:45:01;27.30;47.40
70145;DHT22;57510;51.068;3.872;2022-07-29T13:47:27;27.40;48.60
70145;DHT22;57510;51.068;3.872;2022-07-29T13:49:59;27.50;48.10
70145;DHT22;57510;51.068;3.872;2022-07-29T13:52:33;27.70;48.00
70145;DHT22;57510;51.068;3.872;2022-07-29T13:54:59;27.70;47.10
70145;DHT22;57510;51.068;3.872;2022-07-29T13:57:25;28.10;47.30
70145;DHT22;57510;51.068;3.872;2022-07-29T14:00:03;28.30;46.20
70145;DHT22;57510;51.068;3.872;2022-07-29T14:02:30;28.60;46.10
70145;DHT22;57510;51.068;3.872;2022-07-29T14:04:56;28.20;46.70
70145;DHT22;57510;51.068;3.872;2022-07-29T14:07:25;28.40;45.30
70145;DHT22;57510;51.068;3.872;2022-07-29T14:09:56;28.40;46.20
70145;DHT22;57510;51.068;3.872;2022-07-29T14:12:22;28.40;46.60
70145;DHT22;57510;51.068;3.872;2022-07-29T14:14:55;28.30;46.50
70145;DHT22;57510;51.068;3.872;2022-07-29T14:17:20;28.10;46.10
70145;DHT22;57510;51.068;3.872;2022-07-29T14:19:50;28.40;46.10
70145;DHT22;57510;51.068;3.872;2022-07-29T14:22:15;28.70;45.40
70145;DHT22;57510;51.068;3.872;2022-07-29T14:24:42;29.00;45.20
70145;DHT22;57510;51.068;3.872;2022-07-29T14:27:07;29.50;44.60
70145;DHT22;57510;51.068;3.872;2022-07-29T14:29:33;29.40;44.00
70145;DHT22;57510;51.068;3.872;2022-07-29T14:31:59;29.20;44.00
70145;DHT22;57510;51.068;3.872;2022-07-29T14:34:24;29.30;44.90
70145;DHT22;57510;51.068;3.872;2022-07-29T14:36:51;30.90;42.50
70145;DHT22;57510;51.068;3.872;2022-07-29T14:39:17;32.10;41.60
70145;DHT22;57510;51.068;3.872;2022-07-29T14:41:43;32.30;40.40
70145;DHT22;57510;51.068;3.872;2022-07-29T14:44:25;32.10;40.80
70145;DHT22;57510;51.068;3.872;2022-07-29T14:46:58;31.40;41.00
70145;DHT22;57510;51.068;3.872;2022-07-29T14:49:25;30.80;42.00
70145;DHT22;57510;51.068;3.872;2022-07-29T14:51:50;30.20;42.20
70145;DHT22;57510;51.068;3.872;2022-07-29T14:54:16;29.80;42.70
70145;DHT22;57510;51.068;3.872;2022-07-29T14:56:42;29.80;43.20
70145;DHT22;57510;51.068;3.872;2022-07-29T14:59:07;30.90;41.80
70145;DHT22;57510;51.068;3.872;2022-07-29T15:01:33;32.50;40.00
70145;DHT22;57510;51.068;3.872;2022-07-29T15:03:59;34.20;38.60
70145;DHT22;57510;51.068;3.872;2022-07-29T15:06:24;35.50;37.30
70145;DHT22;57510;51.068;3.872;2022-07-29T15:08:50;36.90;36.30
70145;DHT22;57510;51.068;3.872;2022-07-29T15:11:15;37.40;35.50
70145;DHT22;57510;51.068;3.872;2022-07-29T15:13:42;37.90;35.10
70145;DHT22;57510;51.068;3.872;2022-07-29T15:16:08;39.10;33.80
70145;DHT22;57510;51.068;3.872;2022-07-29T15:18:34;39.40;33.40
70145;DHT22;57510;51.068;3.872;2022-07-29T15:21:00;39.90;32.90
70145;DHT22;57510;51.068;3.872;2022-07-29T15:23:27;39.00;32.80
70145;DHT22;57510;51.068;3.872;2022-07-29T15:25:52;38.30;33.20
70145;DHT22;57510;51.068;3.872;2022-07-29T15:28:18;38.10;33.90
70145;DHT22;57510;51.068;3.872;2022-07-29T15:30:43;37.30;34.30
70145;DHT22;57510;51.068;3.872;2022-07-29T15:33:09;37.20;33.80
70145;DHT22;57510;51.068;3.872;2022-07-29T15:35:35;36.70;34.10
70145;DHT22;57510;51.068;3.872;2022-07-29T15:40:34;35.70;34.50
70145;DHT22;57510;51.068;3.872;2022-07-29T15:43:03;35.70;35.60
70145;DHT22;57510;51.068;3.872;2022-07-29T15:45:40;35.70;35.30
70145;DHT22;57510;51.068;3.872;2022-07-29T15:48:06;35.90;35.30
70145;DHT22;57510;51.068;3.872;2022-07-29T15:50:32;36.50;35.00
70145;DHT22;57510;51.068;3.872;2022-07-29T15:52:57;36.60;34.60
70145;DHT22;57510;51.068;3.872;2022-07-29T15:55:23;37.70;34.10
70145;DHT22;57510;51.068;3.872;2022-07-29T15:58:01;37.80;34.00
70145;DHT22;57510;51.068;3.872;2022-07-29T16:00:46;37.20;34.10
70145;DHT22;57510;51.068;3.872;2022-07-29T16:03:12;37.20;34.10
70145;DHT22;57510;51.068;3.872;2022-07-29T16:05:42;37.30;34.00
70145;DHT22;57510;51.068;3.872;2022-07-29T16:08:15;36.90;34.10
70145;DHT22;57510;51.068;3.872;2022-07-29T16:10:40;37.90;33.50
70145;DHT22;57510;51.068;3.872;2022-07-29T16:13:06;38.20;33.30
70145;DHT22;57510;51.068;3.872;2022-07-29T16:15:31;38.10;33.20
70145;DHT22;57510;51.068;3.872;2022-07-29T16:17:58;38.50;33.00
70145;DHT22;57510;51.068;3.872;2022-07-29T16:20:23;38.20;32.90
70145;DHT22;57510;51.068;3.872;2022-07-29T16:22:49;38.20;32.60
70145;DHT22;57510;51.068;3.872;2022-07-29T16:25:15;38.50;32.20
70145;DHT22;57510;51.068;3.872;2022-07-29T16:27:41;38.40;32.40
70145;DHT22;57510;51.068;3.872;2022-07-29T16:30:07;38.30;32.60
70145;DHT22;57510;51.068;3.872;2022-07-29T16:32:34;38.20;32.50
70145;DHT22;57510;51.068;3.872;2022-07-29T16:34:59;38.00;31.90
70145;DHT22;57510;51.068;3.872;2022-07-29T16:37:26;37.20;32.60
70145;DHT22;57510;51.068;3.872;2022-07-29T16:39:57;37.10;33.40
70145;DHT22;57510;51.068;3.872;2022-07-29T16:42:23;37.50;32.50
70145;DHT22;57510;51.068;3.872;2022-07-29T16:45:05;37.30;32.60
70145;DHT22;57510;51.068;3.872;2022-07-29T16:47:31;36.60;32.90
70145;DHT22;57510;51.068;3.872;2022-07-29T16:49:57;36.90;33.30
70145;DHT22;57510;51.068;3.872;2022-07-29T16:52:22;37.10;33.20
70145;DHT22;57510;51.068;3.872;2022-07-29T16:54:48;37.30;33.00
70145;DHT22;57510;51.068;3.872;2022-07-29T16:57:14;36.60;33.30
70145;DHT22;57510;51.068;3.872;2022-07-29T16:59:40;36.90;33.30